Time;durP1;ratioP1;P1;durP2;ratioP2;P2;SDS_P1;SDS_P2;PMS_P1;PMS_P2;Temp;Humidity;BMP_temperature;BMP_pressure;BME280_temperature;BME280_humidity;BME280_pressure;Samples;Min_cycle;Max_cycle;Signal;HPM_P1;HPM_P2
2021/08/16 00:00:47;;;;;;;9.93;8.90;;;;;;;;;;5052690;28;20426;-72
2021/08/16 00:03:13;;;;;;;11.10;8.30;;;;;;;;;;5056494;28;20853;-72
2021/08/16 00:05:39;;;;;;;12.93;9.33;;;;;;;;;;5056667;28;20411;-71
2021/08/16 00:08:09;;;;;;;10.40;9.43;;;;;;;;;;5056351;28;20406;-71
2021/08/16 00:10:36;;;;;;;11.47;10.27;;;;;;;;;;5056158;28;20485;-72
2021/08/16 00:16:06;;;;;;;12.07;10.17;;;;;;;;;;5056436;28;20436;-71
2021/08/16 00:18:33;;;;;;;11.47;9.20;;;;;;;;;;5056575;28;20898;-71
2021/08/16 00:20:59;;;;;;;11.20;10.10;;;;;;;;;;5056523;28;20415;-72
2021/08/16 00:23:25;;;;;;;10.10;9.10;;;;;;;;;;5056418;28;20435;-72
2021/08/16 00:25:51;;;;;;;12.10;10.40;;;;;;;;;;5056281;28;20468;-72
2021/08/16 00:28:17;;;;;;;11.00;9.90;;;;;;;;;;5056368;28;20399;-71
2021/08/16 00:30:43;;;;;;;12.47;8.87;;;;;;;;;;5056118;28;20519;-71
2021/08/16 00:33:09;;;;;;;13.63;9.47;;;;;;;;;;5056238;28;20411;-72
2021/08/16 00:35:35;;;;;;;12.00;9.00;;;;;;;;;;5056119;28;20476;-71
2021/08/16 00:38:01;;;;;;;10.73;9.67;;;;;;;;;;5056125;28;20418;-71
2021/08/16 00:40:27;;;;;;;10.60;9.50;;;;;;;;;;5056062;28;20431;-71
2021/08/16 00:45:56;;;;;;;9.50;8.67;;;;;;;;;;5055982;28;20457;-71
2021/08/16 00:48:22;;;;;;;9.80;8.83;;;;;;;;;;5056258;28;20418;-71
2021/08/16 00:50:48;;;;;;;10.30;9.17;;;;;;;;;;5055732;28;20995;-71
2021/08/16 00:53:15;;;;;;;11.10;9.63;;;;;;;;;;5055852;28;20429;-71
2021/08/16 00:55:41;;;;;;;9.40;8.50;;;;;;;;;;5055116;28;20419;-72
2021/08/16 01:01:11;;;;;;;9.93;9.03;;;;;;;;;;5055285;28;20818;-72
2021/08/16 01:03:37;;;;;;;10.10;9.20;;;;;;;;;;5054002;28;20521;-72
2021/08/16 01:06:03;;;;;;;10.30;8.70;;;;;;;;;;5055248;28;20506;-73
2021/08/16 01:08:29;;;;;;;9.90;8.90;;;;;;;;;;5055461;28;20953;-71
2021/08/16 01:10:55;;;;;;;14.27;10.27;;;;;;;;;;5054088;28;20537;-71
2021/08/16 01:16:24;;;;;;;11.50;9.20;;;;;;;;;;5055501;28;20402;-71
2021/08/16 01:18:50;;;;;;;11.20;10.13;;;;;;;;;;5055430;28;20517;-70
2021/08/16 01:21:17;;;;;;;11.57;9.77;;;;;;;;;;5055367;28;20430;-71
2021/08/16 01:23:43;;;;;;;11.67;9.27;;;;;;;;;;5055580;28;20407;-71
2021/08/16 01:26:09;;;;;;;11.33;10.23;;;;;;;;;;5055170;28;20411;-71
2021/08/16 01:31:39;;;;;;;11.07;9.00;;;;;;;;;;5055099;28;20532;-71
2021/08/16 01:34:05;;;;;;;10.67;9.63;;;;;;;;;;5055156;28;20415;-72
2021/08/16 01:36:31;;;;;;;12.30;9.73;;;;;;;;;;5054942;28;20481;-71
2021/08/16 01:38:57;;;;;;;14.07;10.30;;;;;;;;;;5055301;28;20759;-71
2021/08/16 01:41:23;;;;;;;12.80;10.20;;;;;;;;;;5054758;28;20462;-72
2021/08/16 01:46:53;;;;;;;10.80;9.67;;;;;;;;;;5054919;28;20438;-72
2021/08/16 01:49:19;;;;;;;11.10;9.90;;;;;;;;;;5055253;28;20429;-71
2021/08/16 01:51:47;;;;;;;12.60;9.40;;;;;;;;;;5055016;28;20481;-71
2021/08/16 01:54:13;;;;;;;18.57;10.53;;;;;;;;;;5054811;28;20489;-70
2021/08/16 01:56:39;;;;;;;13.00;10.20;;;;;;;;;;5054623;28;20411;-71
2021/08/16 01:59:05;;;;;;;12.63;8.90;;;;;;;;;;5054773;28;20530;-71
2021/08/16 02:01:31;;;;;;;11.50;10.30;;;;;;;;;;5054649;28;20450;-71
2021/08/16 02:03:57;;;;;;;11.80;10.60;;;;;;;;;;5054694;28;20410;-71
2021/08/16 02:06:23;;;;;;;10.70;9.60;;;;;;;;;;5054602;28;20438;-72
2021/08/16 02:08:49;;;;;;;9.97;9.10;;;;;;;;;;5054572;28;20905;-73
2021/08/16 02:11:16;;;;;;;9.90;8.30;;;;;;;;;;5054550;28;20475;-72
2021/08/16 02:16:46;;;;;;;9.60;8.57;;;;;;;;;;5054357;28;20422;-72
2021/08/16 02:19:12;;;;;;;9.80;9.00;;;;;;;;;;5054385;28;20420;-71
2021/08/16 02:21:38;;;;;;;13.70;10.23;;;;;;;;;;5054258;28;20407;-72
2021/08/16 02:24:04;;;;;;;10.77;9.00;;;;;;;;;;5054148;28;20415;-72
2021/08/16 02:26:30;;;;;;;10.00;8.97;;;;;;;;;;5054028;28;20438;-71
2021/08/16 02:32:00;;;;;;;9.13;8.27;;;;;;;;;;5053955;28;20473;-71
2021/08/16 02:34:26;;;;;;;14.60;7.50;;;;;;;;;;5053944;28;20410;-72
2021/08/16 02:36:52;;;;;;;10.67;9.37;;;;;;;;;;5054137;28;20438;-72
2021/08/16 02:39:18;;;;;;;16.63;8.10;;;;;;;;;;5053854;28;20423;-71
2021/08/16 02:41:44;;;;;;;9.73;8.40;;;;;;;;;;5053641;28;20419;-72
2021/08/16 02:47:16;;;;;;;8.00;7.30;;;;;;;;;;5053668;28;20465;-71
2021/08/16 02:49:42;;;;;;;9.27;7.53;;;;;;;;;;5054107;28;20427;-72
2021/08/16 02:52:08;;;;;;;9.80;8.63;;;;;;;;;;5053520;28;20477;-71
2021/08/16 02:54:34;;;;;;;12.77;8.23;;;;;;;;;;5053703;28;20439;-71
2021/08/16 02:57:00;;;;;;;6.93;6.40;;;;;;;;;;5053654;28;20466;-72
2021/08/16 02:59:26;;;;;;;10.80;8.07;;;;;;;;;;5053560;28;20411;-72
2021/08/16 03:01:52;;;;;;;8.33;6.50;;;;;;;;;;5053592;28;20415;-72
2021/08/16 03:04:18;;;;;;;13.10;7.53;;;;;;;;;;5053558;28;20453;-72
2021/08/16 03:06:44;;;;;;;14.07;7.23;;;;;;;;;;5053693;28;20468;-72
2021/08/16 03:09:10;;;;;;;12.87;7.37;;;;;;;;;;5053001;28;20975;-71
2021/08/16 03:11:36;;;;;;;7.87;6.90;;;;;;;;;;5053050;28;20808;-72
2021/08/16 03:17:05;;;;;;;8.40;6.80;;;;;;;;;;5053267;28;20430;-71
2021/08/16 03:19:32;;;;;;;10.93;6.70;;;;;;;;;;5053277;28;20419;-72
2021/08/16 03:21:58;;;;;;;10.27;7.10;;;;;;;;;;5053255;28;20399;-71
2021/08/16 03:24:24;;;;;;;11.33;7.10;;;;;;;;;;5053534;28;20415;-71
2021/08/16 03:26:50;;;;;;;6.63;5.97;;;;;;;;;;5052855;28;20829;-71
2021/08/16 03:32:20;;;;;;;8.50;7.10;;;;;;;;;;5053061;28;20434;-72
2021/08/16 03:34:46;;;;;;;7.60;6.23;;;;;;;;;;5053198;28;20988;-72
2021/08/16 03:37:12;;;;;;;7.47;6.37;;;;;;;;;;5052751;28;20419;-71
2021/08/16 03:39:38;;;;;;;7.53;6.40;;;;;;;;;;5053348;28;20415;-71
2021/08/16 03:42:04;;;;;;;8.80;6.87;;;;;;;;;;5052812;28;20893;-71
2021/08/16 03:47:33;;;;;;;8.80;7.37;;;;;;;;;;5052994;28;20418;-71
2021/08/16 03:49:59;;;;;;;7.23;6.57;;;;;;;;;;5052957;28;20495;-71
2021/08/16 03:52:26;;;;;;;11.60;8.13;;;;;;;;;;5053008;28;20427;-72
2021/08/16 03:54:51;;;;;;;9.33;8.33;;;;;;;;;;5051515;28;20434;-72
2021/08/16 03:57:17;;;;;;;10.07;7.97;;;;;;;;;;5052649;28;20431;-71
2021/08/16 04:02:47;;;;;;;12.17;8.57;;;;;;;;;;5052741;28;20542;-72
2021/08/16 04:05:13;;;;;;;10.37;9.30;;;;;;;;;;5052906;28;20497;-71
2021/08/16 04:07:42;;;;;;;9.70;8.77;;;;;;;;;;5052789;28;20418;-71
2021/08/16 04:10:08;;;;;;;10.97;8.13;;;;;;;;;;5052627;28;20415;-71
2021/08/16 04:12:34;;;;;;;9.30;8.30;;;;;;;;;;5052587;28;20932;-71
2021/08/16 04:15:00;;;;;;;8.80;7.90;;;;;;;;;;5052716;28;20407;-71
2021/08/16 04:17:26;;;;;;;10.57;9.27;;;;;;;;;;5052939;28;20477;-71
2021/08/16 04:19:52;;;;;;;10.90;9.90;;;;;;;;;;5052892;28;20421;-71
2021/08/16 04:22:18;;;;;;;11.80;9.47;;;;;;;;;;5052590;28;20868;-71
2021/08/16 04:24:44;;;;;;;11.87;10.20;;;;;;;;;;5051325;28;20445;-72
2021/08/16 04:27:10;;;;;;;16.10;10.30;;;;;;;;;;5052644;28;20842;-71
2021/08/16 04:32:40;;;;;;;13.40;9.17;;;;;;;;;;5052473;28;20437;-71
2021/08/16 04:35:06;;;;;;;9.80;8.87;;;;;;;;;;5051247;28;20562;-71
2021/08/16 04:37:36;;;;;;;9.20;8.40;;;;;;;;;;5052337;28;20874;-72
2021/08/16 04:40:02;;;;;;;12.90;9.20;;;;;;;;;;5052320;28;20415;-72
2021/08/16 04:42:28;;;;;;;13.10;8.97;;;;;;;;;;5052320;28;20931;-71
2021/08/16 04:47:57;;;;;;;9.90;8.60;;;;;;;;;;5053050;28;20406;-71
2021/08/16 04:50:23;;;;;;;13.67;8.80;;;;;;;;;;5056047;28;20454;-71
2021/08/16 04:52:49;;;;;;;10.10;8.00;;;;;;;;;;5055964;28;20399;-71
2021/08/16 04:55:15;;;;;;;10.83;8.40;;;;;;;;;;5055906;28;20759;-71
2021/08/16 04:57:41;;;;;;;9.73;8.67;;;;;;;;;;5055865;28;20415;-70
2021/08/16 05:03:10;;;;;;;10.20;7.93;;;;;;;;;;5055856;28;20468;-71
2021/08/16 05:05:36;;;;;;;9.23;7.67;;;;;;;;;;5055635;28;20913;-70
2021/08/16 05:08:03;;;;;;;8.90;7.77;;;;;;;;;;5055670;28;20415;-72
2021/08/16 05:10:31;;;;;;;9.00;8.00;;;;;;;;;;5055442;28;20462;-71
2021/08/16 05:12:58;;;;;;;7.90;7.10;;;;;;;;;;5055555;28;20818;-70
2021/08/16 05:15:24;;;;;;;12.10;6.50;;;;;;;;;;5055337;28;20403;-73
2021/08/16 05:17:50;;;;;;;12.90;7.63;;;;;;;;;;5055176;28;20415;-71
2021/08/16 05:20:17;;;;;;;10.07;7.07;;;;;;;;;;5055122;28;20504;-72
2021/08/16 05:22:44;;;;;;;7.67;5.97;;;;;;;;;;5054831;28;20915;-71
2021/08/16 05:25:11;;;;;;;10.07;6.23;;;;;;;;;;5055188;28;20785;-72
2021/08/16 05:27:37;;;;;;;11.20;6.60;;;;;;;;;;5054976;28;20396;-71
2021/08/16 05:33:07;;;;;;;9.40;7.13;;;;;;;;;;5054877;28;20784;-71
2021/08/16 05:35:33;;;;;;;9.80;7.00;;;;;;;;;;5054564;28;20478;-71
2021/08/16 05:37:59;;;;;;;10.53;6.93;;;;;;;;;;5054626;28;20859;-71
2021/08/16 05:40:25;;;;;;;6.17;5.30;;;;;;;;;;5054582;28;20455;-72
2021/08/16 05:42:51;;;;;;;9.63;6.83;;;;;;;;;;5053892;28;20407;-71
2021/08/16 05:48:21;;;;;;;9.80;6.80;;;;;;;;;;5054738;28;20823;-72
2021/08/16 05:50:47;;;;;;;8.70;6.40;;;;;;;;;;5054506;28;20474;-70
2021/08/16 05:53:13;;;;;;;8.13;6.73;;;;;;;;;;5054591;28;20502;-71
2021/08/16 05:55:39;;;;;;;6.83;6.10;;;;;;;;;;5054334;28;20909;-72
2021/08/16 05:58:05;;;;;;;6.87;5.97;;;;;;;;;;5054587;28;20426;-71
2021/08/16 06:03:34;;;;;;;8.83;7.10;;;;;;;;;;5054194;28;20414;-72
2021/08/16 06:06:00;;;;;;;8.00;6.57;;;;;;;;;;5054216;28;20415;-71
2021/08/16 06:08:26;;;;;;;7.90;5.43;;;;;;;;;;5054132;28;20415;-71
2021/08/16 06:10:52;;;;;;;9.83;7.93;;;;;;;;;;5053820;28;20463;-70
2021/08/16 06:13:18;;;;;;;11.17;6.50;;;;;;;;;;5054300;28;20795;-71
2021/08/16 06:18:48;;;;;;;8.90;7.10;;;;;;;;;;5054370;28;20991;-70
2021/08/16 06:21:14;;;;;;;9.23;7.60;;;;;;;;;;5054372;28;20426;-69
2021/08/16 06:23:41;;;;;;;8.50;6.93;;;;;;;;;;5053799;28;20407;-69
2021/08/16 06:26:08;;;;;;;7.43;6.43;;;;;;;;;;5053737;28;20403;-70
2021/08/16 06:28:34;;;;;;;7.30;6.20;;;;;;;;;;5054087;28;20448;-71
2021/08/16 06:31:00;;;;;;;7.20;5.23;;;;;;;;;;5053951;28;20554;-70
2021/08/16 06:33:26;;;;;;;6.90;5.10;;;;;;;;;;5054129;28;20446;-71
2021/08/16 06:35:53;;;;;;;6.83;6.23;;;;;;;;;;5053326;28;20458;-71
2021/08/16 06:38:24;;;;;;;6.10;4.80;;;;;;;;;;5054308;28;20505;-71
2021/08/16 06:40:50;;;;;;;5.33;4.83;;;;;;;;;;5053935;28;20423;-71
2021/08/16 06:43:16;;;;;;;7.10;4.47;;;;;;;;;;5053428;28;20910;-70
2021/08/16 06:48:46;;;;;;;5.53;3.93;;;;;;;;;;5053404;28;20449;-70
2021/08/16 06:51:12;;;;;;;5.77;5.17;;;;;;;;;;5053175;28;20458;-70
2021/08/16 06:53:38;;;;;;;4.73;4.17;;;;;;;;;;5053398;28;20438;-70
2021/08/16 06:56:04;;;;;;;7.57;4.33;;;;;;;;;;5053410;28;20418;-70
2021/08/16 06:58:31;;;;;;;6.87;4.23;;;;;;;;;;5053395;28;20415;-70
2021/08/16 07:04:00;;;;;;;4.00;3.57;;;;;;;;;;5053562;28;20457;-70
2021/08/16 07:06:27;;;;;;;5.73;3.90;;;;;;;;;;5051888;28;20423;-70
2021/08/16 07:08:53;;;;;;;4.83;3.70;;;;;;;;;;5051968;28;20469;-70
2021/08/16 07:11:19;;;;;;;6.97;4.20;;;;;;;;;;5050865;28;20471;-72
2021/08/16 07:13:45;;;;;;;8.07;4.30;;;;;;;;;;5052211;28;20414;-70
2021/08/16 07:19:15;;;;;;;4.30;3.70;;;;;;;;;;5052214;28;20465;-71
2021/08/16 07:21:43;;;;;;;5.10;3.97;;;;;;;;;;5052327;28;20486;-70
2021/08/16 07:24:09;;;;;;;4.53;3.90;;;;;;;;;;5052178;28;20854;-72
2021/08/16 07:26:35;;;;;;;6.67;4.83;;;;;;;;;;5052081;28;20407;-71
2021/08/16 07:29:01;;;;;;;5.73;4.00;;;;;;;;;;5051936;28;20426;-71
2021/08/16 07:31:27;;;;;;;4.30;3.83;;;;;;;;;;5052139;28;20751;-71
2021/08/16 07:33:53;;;;;;;5.10;3.80;;;;;;;;;;5052135;28;20893;-72
2021/08/16 07:36:22;;;;;;;5.87;3.77;;;;;;;;;;5052035;28;20976;-71
2021/08/16 07:38:48;;;;;;;4.00;3.33;;;;;;;;;;5051925;28;20901;-72
2021/08/16 07:41:14;;;;;;;5.83;3.13;;;;;;;;;;5051624;28;20523;-71
2021/08/16 07:43:40;;;;;;;5.03;3.60;;;;;;;;;;5051811;28;20494;-72
2021/08/16 07:49:09;;;;;;;6.23;3.70;;;;;;;;;;5051828;28;20417;-71
2021/08/16 07:51:35;;;;;;;5.23;3.37;;;;;;;;;;5050948;28;20498;-71
2021/08/16 07:54:01;;;;;;;4.93;3.67;;;;;;;;;;5051756;28;20477;-72
2021/08/16 07:56:27;;;;;;;4.47;3.23;;;;;;;;;;5051096;28;20838;-71
2021/08/16 07:58:53;;;;;;;5.33;3.40;;;;;;;;;;5051409;28;20422;-72
2021/08/16 08:04:23;;;;;;;3.77;3.37;;;;;;;;;;5051725;28;20782;-73
2021/08/16 08:06:49;;;;;;;5.47;3.33;;;;;;;;;;5051691;28;20403;-72
2021/08/16 08:09:15;;;;;;;5.57;3.30;;;;;;;;;;5051733;28;20850;-72
2021/08/16 08:11:40;;;;;;;4.40;3.50;;;;;;;;;;5051415;28;20471;-72
2021/08/16 08:14:06;;;;;;;7.20;3.47;;;;;;;;;;5051637;28;20409;-73
2021/08/16 08:19:36;;;;;;;4.90;3.20;;;;;;;;;;5051013;28;20493;-71
2021/08/16 08:22:02;;;;;;;5.20;4.00;;;;;;;;;;5052328;28;20437;-72
2021/08/16 08:24:28;;;;;;;3.77;3.33;;;;;;;;;;5055318;28;20497;-72
2021/08/16 08:26:54;;;;;;;2.83;2.63;;;;;;;;;;5055183;28;20516;-72
2021/08/16 08:29:20;;;;;;;4.20;3.27;;;;;;;;;;5055459;28;20446;-72
2021/08/16 08:31:46;;;;;;;3.83;3.10;;;;;;;;;;5055156;28;20505;-72
2021/08/16 08:34:12;;;;;;;4.27;3.30;;;;;;;;;;5055132;28;20913;-72
2021/08/16 08:36:38;;;;;;;6.00;3.93;;;;;;;;;;5055204;28;20509;-73
2021/08/16 08:39:04;;;;;;;4.07;3.53;;;;;;;;;;5055510;28;20509;-72
2021/08/16 08:41:31;;;;;;;5.07;3.40;;;;;;;;;;5055013;28;20506;-72
2021/08/16 08:43:58;;;;;;;5.27;3.70;;;;;;;;;;5055104;28;20407;-71
2021/08/16 08:49:27;;;;;;;4.10;3.30;;;;;;;;;;5054968;28;20772;-72
2021/08/16 08:51:53;;;;;;;5.97;3.50;;;;;;;;;;5054893;28;20878;-72
2021/08/16 08:54:20;;;;;;;4.70;3.50;;;;;;;;;;5055033;28;20464;-72
2021/08/16 08:56:46;;;;;;;6.00;3.10;;;;;;;;;;5054700;28;20901;-71
2021/08/16 08:59:13;;;;;;;7.50;3.77;;;;;;;;;;5054670;28;20442;-72
2021/08/16 09:04:51;;;;;;;5.43;3.00;;;;;;;;;;5054710;28;20500;-71
2021/08/16 09:07:17;;;;;;;4.67;3.37;;;;;;;;;;5054646;28;20431;-72
2021/08/16 09:09:56;;;;;;;6.77;4.17;;;;;;;;;;5054592;28;20407;-72
2021/08/16 09:12:35;;;;;;;7.27;4.30;;;;;;;;;;5054500;28;20466;-72
2021/08/16 09:15:03;;;;;;;5.57;3.60;;;;;;;;;;5054574;28;20415;-72
2021/08/16 09:17:32;;;;;;;5.80;3.83;;;;;;;;;;5054436;28;20865;-72
2021/08/16 09:19:59;;;;;;;7.30;3.93;;;;;;;;;;5054356;28;20420;-71
2021/08/16 09:22:28;;;;;;;5.20;3.57;;;;;;;;;;5054683;28;20527;-74
2021/08/16 09:25:05;;;;;;;6.07;3.37;;;;;;;;;;5054389;28;20437;-72
2021/08/16 09:27:31;;;;;;;7.13;3.40;;;;;;;;;;5054531;28;20415;-73
2021/08/16 09:29:57;;;;;;;6.40;3.60;;;;;;;;;;5054397;28;20426;-73
2021/08/16 09:32:31;;;;;;;4.50;3.33;;;;;;;;;;5054287;28;20817;-73
2021/08/16 09:35:05;;;;;;;4.43;4.00;;;;;;;;;;5053538;28;20813;-73
2021/08/16 09:37:31;;;;;;;7.10;4.83;;;;;;;;;;5054384;28;20500;-73
2021/08/16 09:40:01;;;;;;;4.87;3.80;;;;;;;;;;5054314;28;20989;-73
2021/08/16 09:42:28;;;;;;;5.47;3.57;;;;;;;;;;5053925;28;20916;-73
2021/08/16 09:44:54;;;;;;;5.27;4.10;;;;;;;;;;5054014;28;20480;-72
2021/08/16 09:47:20;;;;;;;5.63;4.33;;;;;;;;;;5053970;28;20438;-73
2021/08/16 09:49:57;;;;;;;5.57;4.20;;;;;;;;;;5053873;28;20431;-74
2021/08/16 09:52:29;;;;;;;6.93;3.83;;;;;;;;;;5053896;28;20811;-72
2021/08/16 09:54:55;;;;;;;8.30;3.87;;;;;;;;;;5053648;28;20418;-71
2021/08/16 09:57:22;;;;;;;6.37;3.80;;;;;;;;;;5053697;28;20418;-72
2021/08/16 09:59:48;;;;;;;4.67;3.47;;;;;;;;;;5053959;28;20415;-72
2021/08/16 10:02:15;;;;;;;8.93;3.83;;;;;;;;;;5052205;28;20809;-72
2021/08/16 10:04:41;;;;;;;6.30;4.00;;;;;;;;;;5053570;28;20451;-73
2021/08/16 10:07:08;;;;;;;7.50;3.97;;;;;;;;;;5053537;28;20426;-72
2021/08/16 10:09:35;;;;;;;5.27;3.60;;;;;;;;;;5053596;28;20421;-73
2021/08/16 10:12:01;;;;;;;4.80;4.00;;;;;;;;;;5053054;28;20474;-72
2021/08/16 10:14:31;;;;;;;8.17;3.73;;;;;;;;;;5053311;28;20407;-72
2021/08/16 10:20:01;;;;;;;6.80;4.03;;;;;;;;;;5053201;28;20406;-72
2021/08/16 10:22:29;;;;;;;5.20;3.50;;;;;;;;;;5053388;28;21002;-72
2021/08/16 10:24:55;;;;;;;3.73;3.23;;;;;;;;;;5053294;28;20410;-72
2021/08/16 10:27:30;;;;;;;5.07;3.13;;;;;;;;;;5053267;28;20445;-73
2021/08/16 10:30:03;;;;;;;4.93;3.10;;;;;;;;;;5049906;28;20457;-73
2021/08/16 10:32:30;;;;;;;5.00;3.13;;;;;;;;;;5053045;28;20474;-72
2021/08/16 10:35:04;;;;;;;5.00;3.43;;;;;;;;;;5052817;28;20465;-71
2021/08/16 10:37:43;;;;;;;5.63;3.13;;;;;;;;;;5052870;28;20411;-72
2021/08/16 10:40:22;;;;;;;5.20;4.07;;;;;;;;;;5052583;28;20438;-72
2021/08/16 10:42:48;;;;;;;9.53;4.83;;;;;;;;;;5052554;28;20419;-72
2021/08/16 10:45:24;;;;;;;7.23;3.90;;;;;;;;;;5052724;28;20399;-71
2021/08/16 10:47:58;;;;;;;5.13;3.23;;;;;;;;;;5052508;28;20511;-72
2021/08/16 10:50:24;;;;;;;3.57;2.87;;;;;;;;;;5052477;28;20408;-72
2021/08/16 10:52:59;;;;;;;4.77;2.90;;;;;;;;;;5052289;28;20415;-72
2021/08/16 10:55:26;;;;;;;5.67;3.37;;;;;;;;;;5051868;28;20544;-72
2021/08/16 10:57:53;;;;;;;13.27;4.00;;;;;;;;;;5051921;28;20416;-72
2021/08/16 11:00:20;;;;;;;4.20;3.20;;;;;;;;;;5051467;28;20411;-71
2021/08/16 11:02:46;;;;;;;5.47;2.97;;;;;;;;;;5051692;28;20462;-74
2021/08/16 11:05:14;;;;;;;5.87;3.60;;;;;;;;;;5051423;28;20430;-72
2021/08/16 11:07:41;;;;;;;6.27;4.00;;;;;;;;;;5051741;28;20497;-72
2021/08/16 11:10:08;;;;;;;5.83;3.80;;;;;;;;;;5053264;28;20826;-72
2021/08/16 11:12:42;;;;;;;6.77;4.17;;;;;;;;;;5052801;28;20431;-72
2021/08/16 11:15:08;;;;;;;4.83;3.60;;;;;;;;;;5052905;28;20905;-72
2021/08/16 11:17:34;;;;;;;5.40;4.00;;;;;;;;;;5052188;28;20453;-71
2021/08/16 11:20:02;;;;;;;9.43;3.93;;;;;;;;;;5052804;28;20407;-72
2021/08/16 11:22:29;;;;;;;5.40;3.50;;;;;;;;;;5052942;28;20415;-72
2021/08/16 11:24:55;;;;;;;4.40;3.47;;;;;;;;;;5053119;28;20821;-72
2021/08/16 11:27:25;;;;;;;6.00;4.00;;;;;;;;;;5052826;28;20415;-73
2021/08/16 11:29:59;;;;;;;6.83;3.40;;;;;;;;;;5053012;28;20541;-73
2021/08/16 11:35:28;;;;;;;4.70;2.80;;;;;;;;;;5052666;28;20477;-72
2021/08/16 11:37:54;;;;;;;6.40;3.47;;;;;;;;;;5052909;28;20411;-73
2021/08/16 11:40:20;;;;;;;5.57;3.20;;;;;;;;;;5051816;28;20503;-72
2021/08/16 11:42:50;;;;;;;10.00;4.10;;;;;;;;;;5051631;28;20427;-71
2021/08/16 11:45:17;;;;;;;5.53;3.27;;;;;;;;;;5052719;28;20788;-72
2021/08/16 11:47:44;;;;;;;3.73;2.83;;;;;;;;;;5051662;28;20945;-73
2021/08/16 11:50:12;;;;;;;6.37;2.73;;;;;;;;;;5052549;28;20415;-73
2021/08/16 11:52:38;;;;;;;4.43;3.20;;;;;;;;;;5052640;28;20512;-71
2021/08/16 11:55:05;;;;;;;4.53;3.30;;;;;;;;;;5052364;28;20403;-73
2021/08/16 11:57:31;;;;;;;11.60;3.70;;;;;;;;;;5056225;28;20423;-72
2021/08/16 11:59:58;;;;;;;4.30;2.83;;;;;;;;;;5059159;28;20819;-72
2021/08/16 12:05:28;;;;;;;4.90;3.37;;;;;;;;;;5058978;28;20420;-73
2021/08/16 12:07:54;;;;;;;6.70;2.80;;;;;;;;;;5058744;28;20893;-72
2021/08/16 12:10:20;;;;;;;6.90;2.90;;;;;;;;;;5058875;28;20415;-71
2021/08/16 12:12:56;;;;;;;4.27;2.80;;;;;;;;;;5058940;28;20468;-73
2021/08/16 12:21:19;;;;;;;4.40;3.03;;;;;;;;;;5059036;28;20785;-72
2021/08/16 12:23:59;;;;;;;4.33;2.93;;;;;;;;;;5058954;28;20475;-73
2021/08/16 12:26:38;;;;;;;3.57;3.03;;;;;;;;;;5057643;28;20468;-72
2021/08/16 12:29:27;;;;;;;2.70;2.27;;;;;;;;;;5059428;28;20418;-72
2021/08/16 12:31:54;;;;;;;7.43;2.60;;;;;;;;;;5059064;28;20478;-72
2021/08/16 12:34:20;;;;;;;4.30;2.83;;;;;;;;;;5058867;28;20414;-74
2021/08/16 12:36:57;;;;;;;4.47;2.57;;;;;;;;;;5057513;28;20803;-73
2021/08/16 12:39:23;;;;;;;5.17;3.13;;;;;;;;;;5059337;28;20419;-72
2021/08/16 12:41:49;;;;;;;5.23;2.70;;;;;;;;;;5058691;28;20928;-72
2021/08/16 12:44:22;;;;;;;3.73;3.43;;;;;;;;;;5059233;28;20402;-72
2021/08/16 12:46:57;;;;;;;4.23;2.63;;;;;;;;;;5059149;28;20418;-72
2021/08/16 12:49:25;;;;;;;5.30;3.20;;;;;;;;;;5059442;28;20461;-72
2021/08/16 12:51:51;;;;;;;4.80;3.10;;;;;;;;;;5059002;28;20470;-72
2021/08/16 12:54:17;;;;;;;4.40;3.53;;;;;;;;;;5059152;28;20422;-71
2021/08/16 12:56:42;;;;;;;4.83;2.90;;;;;;;;;;5058741;28;20765;-71
2021/08/16 12:59:08;;;;;;;3.83;2.97;;;;;;;;;;5058377;28;20411;-72
2021/08/16 13:01:34;;;;;;;5.30;3.70;;;;;;;;;;5058858;28;20415;-71
2021/08/16 13:04:01;;;;;;;3.50;2.70;;;;;;;;;;5058668;28;20410;-72
2021/08/16 13:06:27;;;;;;;4.40;3.43;;;;;;;;;;5058775;28;20419;-71
2021/08/16 13:08:53;;;;;;;6.57;3.20;;;;;;;;;;5055945;28;20498;-72
2021/08/16 13:11:19;;;;;;;3.80;2.97;;;;;;;;;;5051982;28;20506;-72
2021/08/16 13:13:46;;;;;;;5.20;3.27;;;;;;;;;;5054720;28;20450;-71
2021/08/16 13:16:12;;;;;;;5.53;3.90;;;;;;;;;;5054332;28;20889;-72
2021/08/16 13:18:38;;;;;;;5.10;3.57;;;;;;;;;;5054072;28;21090;-71
2021/08/16 13:21:06;;;;;;;3.07;2.77;;;;;;;;;;5054533;28;20450;-71
2021/08/16 13:23:33;;;;;;;4.03;3.57;;;;;;;;;;5054187;28;20921;-71
2021/08/16 13:25:59;;;;;;;3.20;2.67;;;;;;;;;;5054178;28;20436;-73
2021/08/16 13:28:25;;;;;;;3.30;2.70;;;;;;;;;;5054065;28;20411;-72
2021/08/16 13:30:51;;;;;;;8.03;4.23;;;;;;;;;;5053988;28;20521;-72
2021/08/16 13:36:21;;;;;;;5.63;3.53;;;;;;;;;;5053804;28;20473;-72
2021/08/16 13:38:47;;;;;;;6.20;3.90;;;;;;;;;;5053911;28;20423;-71
2021/08/16 13:41:13;;;;;;;5.57;3.23;;;;;;;;;;5053692;28;20433;-73
2021/08/16 13:43:39;;;;;;;5.10;3.30;;;;;;;;;;5053723;28;20829;-71
2021/08/16 13:46:05;;;;;;;4.97;3.03;;;;;;;;;;5053807;28;20411;-71
2021/08/16 13:48:31;;;;;;;5.50;3.03;;;;;;;;;;5053993;28;20407;-71
2021/08/16 13:50:57;;;;;;;3.47;2.97;;;;;;;;;;5052475;28;20458;-72
2021/08/16 13:53:23;;;;;;;4.93;3.10;;;;;;;;;;5053712;28;20906;-71
2021/08/16 13:55:49;;;;;;;4.57;3.10;;;;;;;;;;5053711;28;20410;-71
2021/08/16 13:58:17;;;;;;;5.73;3.50;;;;;;;;;;5053745;28;20419;-71
2021/08/16 14:00:43;;;;;;;4.10;3.00;;;;;;;;;;5053871;28;20443;-72
2021/08/16 14:06:12;;;;;;;3.90;3.17;;;;;;;;;;5053505;28;20490;-72
2021/08/16 14:08:38;;;;;;;5.60;2.90;;;;;;;;;;5053461;28;20506;-72
2021/08/16 14:11:04;;;;;;;5.10;2.70;;;;;;;;;;5053179;28;20917;-72
2021/08/16 14:13:30;;;;;;;4.07;2.97;;;;;;;;;;5053654;28;20399;-72
2021/08/16 14:15:56;;;;;;;5.03;3.30;;;;;;;;;;5053582;28;20442;-72
2021/08/16 14:21:26;;;;;;;4.47;2.80;;;;;;;;;;5052736;28;20813;-71
2021/08/16 14:23:52;;;;;;;4.30;3.43;;;;;;;;;;5053403;28;20841;-72
2021/08/16 14:26:18;;;;;;;6.63;3.47;;;;;;;;;;5052984;28;20433;-72
2021/08/16 14:28:44;;;;;;;7.47;3.37;;;;;;;;;;5052449;28;20414;-72
2021/08/16 14:37:00;;;;;;;6.00;2.67;;;;;;;;;;5052546;28;20433;-71
2021/08/16 14:39:26;;;;;;;4.03;2.80;;;;;;;;;;5052625;28;20415;-72
2021/08/16 14:41:52;;;;;;;3.20;2.57;;;;;;;;;;5052595;28;20408;-71
2021/08/16 14:44:18;;;;;;;4.60;2.53;;;;;;;;;;5052458;28;20889;-72
2021/08/16 14:46:44;;;;;;;3.70;2.20;;;;;;;;;;5052548;28;20446;-71
2021/08/16 14:49:10;;;;;;;4.53;2.33;;;;;;;;;;5052901;28;20501;-72
2021/08/16 14:51:36;;;;;;;2.20;2.00;;;;;;;;;;5052508;28;20461;-72
2021/08/16 14:54:02;;;;;;;4.20;2.30;;;;;;;;;;5051693;28;20415;-71
2021/08/16 14:56:28;;;;;;;3.90;2.60;;;;;;;;;;5052406;28;20407;-72
2021/08/16 14:58:54;;;;;;;4.30;1.93;;;;;;;;;;5052774;28;20414;-71
2021/08/16 15:01:20;;;;;;;3.60;2.20;;;;;;;;;;5052471;28;20415;-72
2021/08/16 15:06:49;;;;;;;7.33;2.23;;;;;;;;;;5052024;28;20429;-71
2021/08/16 15:09:15;;;;;;;4.40;2.47;;;;;;;;;;5052251;28;20878;-71
2021/08/16 15:11:41;;;;;;;7.47;2.50;;;;;;;;;;5051917;28;20469;-71
2021/08/16 15:14:07;;;;;;;4.57;2.80;;;;;;;;;;5052410;28;20506;-71
2021/08/16 15:16:34;;;;;;;3.93;2.70;;;;;;;;;;5052204;28;20480;-72
2021/08/16 15:19:00;;;;;;;2.90;2.20;;;;;;;;;;5050949;28;20419;-72
2021/08/16 15:21:26;;;;;;;4.67;2.83;;;;;;;;;;5052289;28;20415;-72
2021/08/16 15:23:52;;;;;;;4.90;2.87;;;;;;;;;;5052038;28;20422;-71
2021/08/16 15:26:18;;;;;;;3.40;2.30;;;;;;;;;;5051907;28;20419;-72
2021/08/16 15:28:44;;;;;;;5.53;2.20;;;;;;;;;;5051964;28;20403;-68
2021/08/16 15:31:10;;;;;;;3.30;2.37;;;;;;;;;;5051889;28;20458;-70
2021/08/16 15:36:40;;;;;;;4.70;2.40;;;;;;;;;;5051713;28;20476;-71
2021/08/16 15:39:06;;;;;;;3.80;2.10;;;;;;;;;;5051784;28;20415;-71
2021/08/16 15:41:32;;;;;;;4.53;2.93;;;;;;;;;;5051488;28;20407;-71
2021/08/16 15:43:57;;;;;;;3.70;2.20;;;;;;;;;;5051705;28;20473;-71
2021/08/16 15:46:23;;;;;;;4.20;2.50;;;;;;;;;;5051970;28;20411;-72
2021/08/16 15:51:53;;;;;;;4.67;2.73;;;;;;;;;;5051720;28;20827;-72
2021/08/16 15:54:19;;;;;;;5.83;2.70;;;;;;;;;;5051707;28;20498;-70
2021/08/16 15:56:45;;;;;;;3.20;2.27;;;;;;;;;;5051585;28;20506;-71
2021/08/16 15:59:11;;;;;;;6.80;2.50;;;;;;;;;;5050460;28;20419;-71
2021/08/16 16:01:38;;;;;;;6.40;2.33;;;;;;;;;;5051463;28;20510;-71
2021/08/16 16:07:08;;;;;;;5.37;2.53;;;;;;;;;;5051412;28;20422;-71
2021/08/16 16:09:34;;;;;;;3.70;2.70;;;;;;;;;;5051614;28;20906;-71
2021/08/16 16:12:00;;;;;;;4.00;2.10;;;;;;;;;;5049779;28;20484;-71
2021/08/16 16:14:26;;;;;;;4.40;2.53;;;;;;;;;;5051428;28;20416;-71
2021/08/16 16:16:53;;;;;;;3.53;1.80;;;;;;;;;;5051402;28;20420;-71
2021/08/16 16:19:19;;;;;;;2.77;2.10;;;;;;;;;;5052397;28;20420;-72
2021/08/16 16:21:45;;;;;;;4.17;2.60;;;;;;;;;;5052706;28;20793;-72
2021/08/16 16:24:11;;;;;;;3.30;2.10;;;;;;;;;;5051425;28;20435;-72
2021/08/16 16:26:37;;;;;;;2.70;1.80;;;;;;;;;;5051139;28;20415;-72
2021/08/16 16:29:04;;;;;;;2.77;2.10;;;;;;;;;;5051554;28;20399;-71
2021/08/16 16:31:30;;;;;;;2.47;1.90;;;;;;;;;;5051145;28;20462;-72
2021/08/16 16:37:00;;;;;;;3.33;1.60;;;;;;;;;;5051149;28;20999;-72
2021/08/16 16:39:26;;;;;;;4.33;2.30;;;;;;;;;;5050536;28;20410;-72
2021/08/16 16:41:52;;;;;;;3.40;1.77;;;;;;;;;;5050981;28;20703;-72
2021/08/16 16:44:18;;;;;;;5.70;2.03;;;;;;;;;;5054974;28;20415;-72
2021/08/16 16:46:45;;;;;;;3.23;2.40;;;;;;;;;;5055684;28;20759;-72
2021/08/16 16:52:15;;;;;;;2.67;2.10;;;;;;;;;;5055501;28;20509;-71